Time;durP1;ratioP1;P1;durP2;ratioP2;P2;SDS_P1;SDS_P2;PMS_P1;PMS_P2;Temp;Humidity;BMP_temperature;BMP_pressure;BME280_temperature;BME280_humidity;BME280_pressure;Samples;Min_cycle;Max_cycle;Signal;HPM_P1;HPM_P2
2022/01/12 00:01:16;;;;;;;19.77;9.10;;;0.20;99.90;;;;;;5040928;28;20414;-48
2022/01/12 00:03:44;;;;;;;23.10;10.20;;;0.20;99.90;;;;;;5040826;28;20441;-44
2022/01/12 01:42:05;;;;;;;28.23;10.13;;;0.30;99.90;;;;;;5690287;22;20308;-53
2022/01/12 01:53:17;;;;;;;17.20;9.43;;;0.30;99.90;;;;;;5073037;28;20437;-50
2022/01/12 01:55:40;;;;;;;25.17;9.10;;;0.40;99.90;;;;;;5074214;28;20433;-52
2022/01/12 01:58:08;;;;;;;17.87;6.90;;;0.40;99.90;;;;;;5074089;28;20479;-54
2022/01/12 02:00:35;;;;;;;20.93;8.23;;;0.40;99.90;;;;;;5074651;28;20902;-54
2022/01/12 02:03:05;;;;;;;20.67;10.40;;;0.40;99.90;;;;;;5074625;28;20457;-53
2022/01/12 02:05:32;;;;;;;22.17;9.73;;;0.50;99.90;;;;;;5074280;28;20462;-58
2022/01/12 02:07:59;;;;;;;18.60;7.73;;;0.40;99.90;;;;;;5074116;28;20470;-52
2022/01/12 02:10:28;;;;;;;23.20;8.73;;;0.40;99.90;;;;;;5074481;28;20483;-55
2022/01/12 02:12:54;;;;;;;16.87;9.37;;;0.50;99.90;;;;;;5074229;28;20440;-55
2022/01/12 02:15:25;;;;;;;23.97;10.63;;;0.50;99.90;;;;;;5073676;28;20496;-56
2022/01/12 02:18:03;;;;;;;19.97;9.60;;;0.40;99.90;;;;;;5074029;28;20447;-53
2022/01/12 02:37:16;;;;;;;16.80;6.57;;;0.40;99.90;;;;;;5073663;28;20524;-53
2022/01/12 02:39:55;;;;;;;24.37;9.30;;;0.50;99.90;;;;;;5074034;28;20499;-50
2022/01/12 02:42:24;;;;;;;15.37;7.83;;;0.50;99.90;;;;;;5073084;28;20497;-50
2022/01/12 02:50:46;;;;;;;15.70;6.23;;;0.60;99.90;;;;;;5073823;28;20473;-55
2022/01/12 02:56:01;;;;;;;19.40;8.77;;;0.60;99.90;;;;;;5073892;28;20440;-52
2022/01/12 02:58:28;;;;;;;11.80;6.70;;;0.50;99.90;;;;;;5074352;28;20514;-54
2022/01/12 03:01:23;;;;;;;17.10;7.90;;;0.50;99.90;;;;;;5073356;28;20443;-55
2022/01/12 03:03:54;;;;;;;14.67;6.37;;;0.50;99.90;;;;;;5074041;28;20458;-56
2022/01/12 03:06:26;;;;;;;22.63;10.83;;;0.50;99.90;;;;;;5073475;28;20458;-53
2022/01/12 03:08:53;;;;;;;16.17;6.87;;;0.50;99.90;;;;;;5073993;28;20466;-53
2022/01/12 03:11:24;;;;;;;19.43;8.60;;;0.50;99.90;;;;;;5073813;28;20467;-51
2022/01/12 03:13:52;;;;;;;19.23;7.70;;;0.50;99.90;;;;;;5073962;28;20469;-55
2022/01/12 03:16:22;;;;;;;23.63;9.97;;;0.50;99.90;;;;;;5073858;28;20588;-53
2022/01/12 03:18:52;;;;;;;14.50;7.80;;;0.50;99.90;;;;;;5073950;28;20496;-54
2022/01/12 03:21:21;;;;;;;19.80;8.70;;;0.50;99.90;;;;;;5073070;28;20439;-51
2022/01/12 03:23:53;;;;;;;27.40;9.70;;;0.50;99.90;;;;;;5073193;28;20431;-55
2022/01/12 03:26:26;;;;;;;21.03;6.07;;;0.60;99.90;;;;;;5076681;28;20434;-51
2022/01/12 03:28:54;;;;;;;17.50;9.13;;;0.50;99.90;;;;;;5077296;28;20512;-52
2022/01/12 03:31:26;;;;;;;26.33;8.27;;;0.50;99.90;;;;;;5077201;28;20457;-54
2022/01/12 03:33:59;;;;;;;21.03;8.30;;;0.60;99.90;;;;;;5077071;28;20481;-52
2022/01/12 03:36:40;;;;;;;15.93;6.53;;;0.60;99.90;;;;;;5076843;28;20427;-53
2022/01/12 03:39:10;;;;;;;23.37;9.30;;;0.50;99.90;;;;;;5076247;28;20560;-51
2022/01/12 03:41:39;;;;;;;25.40;8.87;;;0.60;99.90;;;;;;5076342;28;20455;-56
2022/01/12 03:44:07;;;;;;;25.50;9.80;;;0.60;99.90;;;;;;5076456;28;20492;-52
2022/01/12 03:46:37;;;;;;;13.97;8.47;;;0.70;99.90;;;;;;5076132;28;20443;-50
2022/01/12 03:49:04;;;;;;;22.80;8.80;;;0.70;99.90;;;;;;5075777;28;20513;-52
2022/01/12 03:51:30;;;;;;;22.17;8.33;;;0.70;99.90;;;;;;5075517;28;20567;-55
2022/01/12 03:53:57;;;;;;;15.97;6.67;;;0.80;99.90;;;;;;5076284;28;20510;-54
2022/01/12 03:56:24;;;;;;;22.23;8.23;;;0.80;99.90;;;;;;5076039;28;20661;-55
2022/01/12 03:58:52;;;;;;;21.97;6.70;;;0.80;99.90;;;;;;5075741;28;20446;-56
2022/01/12 04:01:19;;;;;;;20.80;8.57;;;0.80;99.90;;;;;;5075401;28;20835;-53
2022/01/12 04:03:57;;;;;;;30.37;10.77;;;0.90;99.90;;;;;;5075955;28;20480;-55
2022/01/12 04:09:11;;;;;;;18.57;9.07;;;0.80;99.90;;;;;;5075686;28;20474;-51
2022/01/12 04:11:38;;;;;;;22.57;8.23;;;0.90;99.90;;;;;;5076003;28;20495;-54
2022/01/12 04:14:06;;;;;;;30.13;10.93;;;0.90;99.90;;;;;;5076346;28;20505;-50
2022/01/12 04:16:33;;;;;;;21.43;8.57;;;0.90;99.90;;;;;;5075836;28;20530;-51
2022/01/12 04:19:00;;;;;;;21.20;8.03;;;0.90;99.90;;;;;;5076019;28;20497;-45
2022/01/12 04:21:28;;;;;;;18.60;8.17;;;0.90;99.90;;;;;;5075674;28;20435;-47
2022/01/12 04:23:55;;;;;;;23.77;8.33;;;0.90;99.90;;;;;;5075394;28;20474;-51
2022/01/12 04:26:24;;;;;;;18.97;8.97;;;1.00;99.90;;;;;;5075967;28;20753;-54
2022/01/12 04:28:50;;;;;;;19.73;7.73;;;1.00;99.90;;;;;;5076535;28;20462;-52
2022/01/12 04:31:19;;;;;;;33.93;10.23;;;0.90;99.90;;;;;;5076414;28;20443;-50
2022/01/12 04:33:47;;;;;;;21.10;8.43;;;0.90;99.90;;;;;;5076059;28;20454;-52
2022/01/12 04:36:17;;;;;;;23.43;7.50;;;0.90;99.90;;;;;;5074597;28;20439;-53
2022/01/12 04:38:46;;;;;;;30.13;10.90;;;0.80;99.90;;;;;;5075778;28;20438;-54
2022/01/12 04:41:14;;;;;;;19.53;6.47;;;0.80;99.90;;;;;;5074964;28;20450;-52
2022/01/12 04:43:44;;;;;;;19.47;7.10;;;0.80;99.90;;;;;;5075253;28;20423;-54
2022/01/12 04:46:25;;;;;;;32.63;6.63;;;0.80;99.90;;;;;;5074991;28;20459;-54
2022/01/12 04:49:09;;;;;;;28.73;10.03;;;0.90;99.90;;;;;;5075446;28;20445;-50
2022/01/12 04:51:37;;;;;;;25.57;9.97;;;0.90;99.90;;;;;;5074698;28;20471;-52
2022/01/12 04:54:05;;;;;;;26.03;11.97;;;0.90;99.90;;;;;;5074556;28;20447;-54
2022/01/12 04:56:32;;;;;;;18.33;9.13;;;0.90;99.90;;;;;;5074580;28;20497;-55
2022/01/12 04:58:58;;;;;;;22.53;9.23;;;0.90;99.90;;;;;;5075013;28;20450;-54
2022/01/12 05:01:27;;;;;;;27.30;9.30;;;0.90;99.90;;;;;;5074434;28;20439;-55
2022/01/12 05:06:52;;;;;;;20.83;7.87;;;1.00;99.90;;;;;;5074731;28;20437;-54
2022/01/12 05:09:50;;;;;;;20.73;8.30;;;1.00;99.90;;;;;;5074204;28;20539;-53
2022/01/12 05:15:08;;;;;;;27.90;10.17;;;1.00;99.90;;;;;;5074813;28;20476;-54
2022/01/12 05:17:35;;;;;;;22.93;7.23;;;1.00;99.90;;;;;;5075299;28;20442;-55
2022/01/12 05:20:04;;;;;;;21.00;9.43;;;1.00;99.90;;;;;;5074939;28;20468;-52
2022/01/12 05:22:31;;;;;;;29.33;8.40;;;1.00;99.90;;;;;;5073728;28;20456;-52
2022/01/12 05:24:58;;;;;;;20.93;8.63;;;1.00;99.90;;;;;;5074084;28;20468;-49
2022/01/12 05:27:27;;;;;;;29.33;12.27;;;1.00;99.90;;;;;;5074583;28;20511;-55
2022/01/12 05:29:53;;;;;;;16.63;7.70;;;1.00;99.90;;;;;;5074321;28;20475;-55
2022/01/12 05:32:23;;;;;;;25.00;10.80;;;1.00;99.90;;;;;;5073708;28;20420;-52
2022/01/12 05:34:49;;;;;;;36.27;10.00;;;1.00;99.90;;;;;;5073662;28;20826;-51
2022/01/12 05:37:19;;;;;;;19.20;8.80;;;1.00;99.90;;;;;;5074078;28;20439;-55
2022/01/12 05:39:46;;;;;;;16.67;6.93;;;1.10;99.90;;;;;;5076012;28;20432;-54
2022/01/12 05:42:16;;;;;;;28.07;8.23;;;1.10;99.90;;;;;;5078769;28;20448;-52
2022/01/12 05:44:43;;;;;;;33.03;8.83;;;1.00;99.90;;;;;;5078834;28;20431;-48
2022/01/12 05:47:18;;;;;;;11.40;7.60;;;1.00;99.90;;;;;;5078816;28;20447;-52
2022/01/12 05:49:49;;;;;;;20.50;9.33;;;1.00;99.90;;;;;;5078766;28;20450;-49
2022/01/12 05:52:19;;;;;;;13.50;5.67;;;1.00;99.90;;;;;;5078574;28;20452;-51
2022/01/12 05:54:48;;;;;;;38.63;11.00;;;1.10;99.90;;;;;;5078637;28;20440;-50
2022/01/12 05:57:18;;;;;;;37.03;11.73;;;1.10;99.90;;;;;;5078589;28;20487;-53
2022/01/12 05:59:45;;;;;;;16.27;7.07;;;1.10;99.90;;;;;;5078684;28;20412;-52
2022/01/12 06:02:13;;;;;;;26.73;8.50;;;1.10;99.90;;;;;;5078560;28;20446;-48
2022/01/12 06:04:42;;;;;;;22.73;7.47;;;1.10;99.90;;;;;;5078431;28;20510;-49
2022/01/12 06:07:09;;;;;;;21.53;7.33;;;1.00;99.90;;;;;;5078608;28;20424;-47
2022/01/12 06:09:37;;;;;;;13.87;8.13;;;1.00;99.90;;;;;;5078492;28;20465;-47
2022/01/12 06:12:04;;;;;;;25.83;9.60;;;1.00;99.90;;;;;;5078436;28;20427;-46
2022/01/12 06:14:33;;;;;;;22.83;9.37;;;1.10;99.90;;;;;;5078306;28;20435;-44
2022/01/12 06:16:59;;;;;;;21.53;7.03;;;1.00;99.90;;;;;;5078446;28;20422;-53
2022/01/12 06:19:31;;;;;;;10.47;6.03;;;1.00;99.90;;;;;;5078344;28;20461;-47
2022/01/12 06:22:00;;;;;;;13.90;6.73;;;1.00;99.90;;;;;;5078361;28;20420;-49
2022/01/12 06:24:33;;;;;;;19.07;7.13;;;1.00;99.90;;;;;;5078310;28;20423;-46
2022/01/12 06:27:03;;;;;;;18.37;8.43;;;1.10;99.90;;;;;;5078235;28;20464;-46
2022/01/12 06:29:40;;;;;;;20.03;7.03;;;1.00;99.90;;;;;;5078462;28;20466;-48
2022/01/12 06:32:08;;;;;;;16.07;7.90;;;1.00;99.90;;;;;;5078187;28;20458;-44
2022/01/12 06:34:37;;;;;;;23.50;7.23;;;1.00;99.90;;;;;;5078162;28;20427;-53
2022/01/12 06:37:04;;;;;;;15.43;7.40;;;1.00;99.90;;;;;;5078007;28;20447;-45
2022/01/12 06:39:31;;;;;;;25.77;9.10;;;1.00;99.90;;;;;;5078194;28;20412;-45
2022/01/12 06:41:58;;;;;;;19.97;6.40;;;1.00;99.90;;;;;;5078111;28;20434;-43
2022/01/12 06:44:26;;;;;;;14.27;7.37;;;1.00;99.90;;;;;;5078147;28;20412;-46
2022/01/12 06:46:54;;;;;;;19.97;6.10;;;1.00;99.90;;;;;;5078143;28;20423;-51
2022/01/12 06:49:21;;;;;;;8.03;4.70;;;1.00;99.90;;;;;;5078092;28;20450;-49
2022/01/12 06:51:51;;;;;;;24.20;8.10;;;1.00;99.90;;;;;;5078154;28;20435;-53
2022/01/12 06:54:18;;;;;;;12.97;7.03;;;1.00;99.90;;;;;;5077854;28;20512;-48
2022/01/12 06:56:45;;;;;;;13.53;5.50;;;1.00;99.90;;;;;;5077896;28;20412;-50
2022/01/12 06:59:14;;;;;;;16.27;6.63;;;1.00;99.90;;;;;;5077509;28;20427;-49
2022/01/12 07:01:47;;;;;;;17.10;6.30;;;1.00;99.90;;;;;;5081914;28;20430;-47
2022/01/12 07:04:17;;;;;;;17.17;7.10;;;1.00;99.90;;;;;;5081751;28;20423;-46
2022/01/12 07:06:53;;;;;;;21.93;10.43;;;1.00;99.90;;;;;;5081655;28;20434;-51
2022/01/12 07:09:22;;;;;;;20.40;6.67;;;0.90;99.90;;;;;;5081701;28;20421;-53
2022/01/12 07:11:52;;;;;;;14.93;8.10;;;0.90;99.90;;;;;;5081416;28;20450;-50
2022/01/12 07:14:21;;;;;;;17.37;8.83;;;0.90;99.90;;;;;;5081572;28;20431;-49
2022/01/12 07:16:58;;;;;;;11.83;6.93;;;1.00;99.90;;;;;;5081483;28;20469;-48
2022/01/12 07:19:35;;;;;;;19.53;8.10;;;1.00;99.90;;;;;;5081583;28;20404;-45
2022/01/12 07:22:05;;;;;;;21.90;8.53;;;1.00;99.90;;;;;;5081370;28;20439;-46
2022/01/12 07:24:33;;;;;;;26.03;8.20;;;1.00;99.90;;;;;;5081440;28;20436;-46
2022/01/12 07:27:04;;;;;;;16.67;6.20;;;1.10;99.90;;;;;;5080848;28;20435;-48
2022/01/12 07:29:31;;;;;;;12.47;4.43;;;1.00;99.90;;;;;;5081221;28;20522;-50
2022/01/12 07:31:59;;;;;;;19.67;8.73;;;1.10;99.90;;;;;;5081224;28;20425;-47
2022/01/12 07:34:28;;;;;;;29.13;7.00;;;1.10;99.90;;;;;;5066901;28;20421;-46
2022/01/12 07:36:55;;;;;;;20.70;8.00;;;1.10;99.90;;;;;;5061384;28;20408;-45
2022/01/12 07:39:27;;;;;;;23.90;7.03;;;1.10;99.90;;;;;;5061217;28;20447;-52
2022/01/12 07:41:56;;;;;;;25.47;8.47;;;1.20;99.90;;;;;;5061338;28;20436;-48
2022/01/12 07:44:26;;;;;;;26.47;9.20;;;1.20;99.90;;;;;;5061265;28;20440;-42
2022/01/12 07:46:56;;;;;;;15.37;5.80;;;1.30;99.90;;;;;;5061283;28;20401;-45
2022/01/12 07:49:24;;;;;;;16.83;5.20;;;1.30;99.90;;;;;;5060931;28;20465;-49
2022/01/12 07:51:53;;;;;;;18.30;6.80;;;1.30;99.90;;;;;;5060558;28;20452;-46
2022/01/12 07:54:26;;;;;;;23.83;6.70;;;1.40;99.90;;;;;;5059906;28;20445;-51
2022/01/12 07:56:55;;;;;;;20.33;6.53;;;1.50;99.90;;;;;;5060810;28;20443;-52
2022/01/12 07:59:22;;;;;;;14.23;6.30;;;1.50;99.90;;;;;;5060886;28;20444;-46
2022/01/12 08:01:50;;;;;;;20.97;7.77;;;1.50;99.90;;;;;;5060955;28;20417;-46
2022/01/12 08:04:17;;;;;;;16.17;5.20;;;1.50;99.90;;;;;;5060841;28;20429;-50
2022/01/12 08:06:45;;;;;;;26.57;6.40;;;1.50;99.90;;;;;;5060706;28;20425;-49
2022/01/12 08:09:15;;;;;;;19.67;6.67;;;1.60;99.90;;;;;;5060699;28;20424;-46
2022/01/12 08:11:44;;;;;;;16.73;5.53;;;1.60;99.90;;;;;;5059185;28;20479;-52
2022/01/12 10:57:27;;;;;;;20.37;8.07;;;3.90;99.90;;;;;;5297425;22;20494;-48
2022/01/12 11:00:06;;;;;;;20.27;7.67;;;4.00;99.90;;;;;;5079312;28;20467;-55
2022/01/12 11:02:34;;;;;;;14.20;6.47;;;4.00;99.90;;;;;;5080000;28;20451;-48
2022/01/12 11:05:02;;;;;;;14.80;6.60;;;4.10;99.90;;;;;;5079546;28;20459;-48
2022/01/12 11:07:30;;;;;;;16.50;6.73;;;4.10;99.90;;;;;;5079761;28;20470;-55
2022/01/12 11:10:01;;;;;;;14.37;6.67;;;4.00;99.90;;;;;;5079368;28;20459;-52
2022/01/12 11:12:29;;;;;;;18.37;9.30;;;4.00;99.90;;;;;;5078755;28;20443;-51
2022/01/12 11:14:57;;;;;;;13.27;6.10;;;4.00;99.90;;;;;;5079201;28;20447;-58
2022/01/12 11:17:23;;;;;;;16.83;8.30;;;4.00;99.90;;;;;;5078527;28;20439;-52
2022/01/12 11:19:57;;;;;;;9.93;6.87;;;3.90;99.90;;;;;;5078580;28;20463;-55
2022/01/12 11:22:38;;;;;;;13.93;6.93;;;4.00;99.90;;;;;;5079109;28;20436;-52
2022/01/12 11:25:16;;;;;;;9.93;6.00;;;4.00;99.90;;;;;;5078195;28;20531;-52
2022/01/12 11:27:45;;;;;;;19.27;8.30;;;4.00;99.90;;;;;;5077915;28;20442;-56
2022/01/12 11:30:19;;;;;;;12.83;5.23;;;4.00;99.90;;;;;;5077641;28;20491;-53
2022/01/12 11:32:56;;;;;;;12.07;4.97;;;4.10;99.90;;;;;;5077290;28;20419;-55
2022/01/12 11:35:26;;;;;;;12.47;6.73;;;4.40;99.90;;;;;;5077760;28;20459;-56
2022/01/12 11:37:57;;;;;;;18.00;6.90;;;4.80;99.90;;;;;;5077771;28;20424;-55
2022/01/12 11:40:36;;;;;;;12.77;7.80;;;4.70;99.90;;;;;;5078417;28;20424;-53
2022/01/12 11:43:18;;;;;;;17.80;7.17;;;4.50;99.90;;;;;;5077474;28;20440;-55
2022/01/12 11:45:45;;;;;;;14.00;8.17;;;4.30;99.90;;;;;;5077369;28;20479;-55
2022/01/12 11:48:12;;;;;;;20.47;9.47;;;4.20;99.90;;;;;;5077847;28;20477;-53
2022/01/12 11:50:39;;;;;;;12.97;7.27;;;4.10;99.90;;;;;;5077373;28;20490;-50
2022/01/12 11:53:05;;;;;;;15.43;6.67;;;4.00;99.90;;;;;;5077429;28;20469;-53
2022/01/12 11:55:37;;;;;;;14.13;6.20;;;4.00;99.90;;;;;;5077386;28;20440;-49
2022/01/12 11:58:17;;;;;;;17.90;9.50;;;4.00;99.90;;;;;;5077653;28;20471;-51
2022/01/12 12:00:44;;;;;;;44.50;8.73;;;4.00;99.90;;;;;;5077156;28;20527;-51
2022/01/12 12:03:16;;;;;;;20.90;8.13;;;4.00;99.90;;;;;;5077151;28;20455;-56
2022/01/12 12:05:43;;;;;;;16.27;7.93;;;4.00;99.90;;;;;;5077216;28;20448;-54
2022/01/12 12:08:09;;;;;;;30.23;9.27;;;4.00;99.90;;;;;;5077684;28;20455;-54
2022/01/12 12:10:39;;;;;;;19.60;7.47;;;4.00;99.90;;;;;;5077192;28;20499;-50
2022/01/12 12:13:11;;;;;;;44.27;9.80;;;4.00;99.90;;;;;;5076964;28;20423;-52
2022/01/12 12:15:38;;;;;;;20.03;10.23;;;4.00;99.90;;;;;;5076575;28;20472;-53
2022/01/12 12:18:04;;;;;;;24.80;12.30;;;4.00;99.90;;;;;;5076644;28;20439;-53
2022/01/12 12:20:36;;;;;;;18.63;8.67;;;4.00;99.90;;;;;;5076914;28;20451;-53
2022/01/12 12:23:03;;;;;;;23.57;7.40;;;4.00;99.90;;;;;;5076665;28;20424;-49
2022/01/12 12:25:32;;;;;;;14.87;6.80;;;3.90;99.90;;;;;;5076587;28;20466;-50
2022/01/12 12:28:00;;;;;;;23.37;9.20;;;4.00;99.90;;;;;;5076491;28;20443;-51
2022/01/12 12:30:30;;;;;;;15.97;9.37;;;4.00;99.90;;;;;;5076816;28;20444;-51
2022/01/12 12:33:03;;;;;;;16.77;7.00;;;4.00;99.90;;;;;;5076553;28;20500;-49
2022/01/12 12:35:32;;;;;;;12.10;7.37;;;4.00;99.90;;;;;;5077019;28;20459;-50
2022/01/12 12:38:02;;;;;;;18.03;9.30;;;4.00;99.90;;;;;;5076636;28;20464;-49
2022/01/12 12:40:30;;;;;;;22.73;10.30;;;3.90;99.90;;;;;;5077034;28;20478;-52
2022/01/12 12:43:04;;;;;;;21.40;9.50;;;3.90;99.90;;;;;;5076441;28;20440;-47
2022/01/12 12:45:41;;;;;;;27.07;8.43;;;3.90;99.90;;;;;;5076762;28;20418;-54
2022/01/12 12:48:09;;;;;;;28.80;10.37;;;4.00;99.90;;;;;;5076099;28;20501;-50
2022/01/12 12:50:36;;;;;;;15.93;6.90;;;3.90;99.90;;;;;;5076468;28;20908;-54
2022/01/12 12:53:04;;;;;;;22.70;10.00;;;3.90;99.90;;;;;;5076426;28;20454;-53
2022/01/12 12:55:35;;;;;;;23.33;8.17;;;3.90;99.90;;;;;;5076635;28;20459;-52
2022/01/12 12:58:02;;;;;;;26.63;8.60;;;3.90;99.90;;;;;;5075344;28;20440;-58
2022/01/12 13:00:31;;;;;;;27.03;8.70;;;3.80;99.90;;;;;;5076018;28;20471;-51
2022/01/12 13:03:01;;;;;;;32.93;11.37;;;3.90;99.90;;;;;;5076698;28;20508;-55
2022/01/12 13:05:31;;;;;;;26.80;9.63;;;3.90;99.90;;;;;;5076571;28;20511;-48
2022/01/12 13:07:58;;;;;;;20.43;9.33;;;3.90;99.90;;;;;;5076646;28;20459;-56
2022/01/12 13:10:27;;;;;;;28.73;8.80;;;3.90;99.90;;;;;;5076701;28;20419;-49
2022/01/12 13:12:58;;;;;;;18.60;7.20;;;3.90;99.90;;;;;;5075923;28;20520;-54
2022/01/12 13:15:27;;;;;;;17.90;7.53;;;3.90;99.90;;;;;;5076228;28;20900;-47
2022/01/12 13:18:03;;;;;;;20.60;8.70;;;4.00;99.90;;;;;;5075981;28;21013;-52
2022/01/12 13:23:17;;;;;;;25.93;8.90;;;3.90;99.90;;;;;;5075645;28;20462;-46
2022/01/12 13:25:44;;;;;;;17.47;7.27;;;4.00;99.90;;;;;;5075842;28;20467;-47
2022/01/12 13:28:11;;;;;;;36.50;11.60;;;4.00;99.90;;;;;;5075901;28;20490;-51
2022/01/12 13:30:50;;;;;;;28.93;9.07;;;4.00;99.90;;;;;;5075454;28;20419;-51
2022/01/12 13:33:27;;;;;;;25.57;9.37;;;4.00;99.90;;;;;;5074744;28;20415;-53
2022/01/12 13:35:54;;;;;;;36.60;9.60;;;4.10;99.90;;;;;;5075306;28;20439;-51
2022/01/12 13:38:29;;;;;;;24.83;9.10;;;4.00;99.90;;;;;;5075226;28;20470;-49
2022/01/12 13:40:57;;;;;;;17.13;7.13;;;4.10;99.90;;;;;;5074935;28;20454;-47
2022/01/12 13:43:24;;;;;;;20.80;8.20;;;4.10;99.90;;;;;;5075193;28;20459;-51
2022/01/12 13:46:00;;;;;;;35.70;10.37;;;4.10;99.90;;;;;;5074773;28;20464;-55
2022/01/12 13:48:31;;;;;;;17.90;7.70;;;4.10;99.90;;;;;;5075189;28;20470;-53
2022/01/12 13:51:02;;;;;;;29.70;10.67;;;4.10;99.90;;;;;;5074424;28;20509;-50
2022/01/12 13:53:34;;;;;;;22.17;7.07;;;4.20;99.90;;;;;;5074272;28;20426;-51
2022/01/12 13:56:01;;;;;;;42.60;11.47;;;4.10;99.90;;;;;;5075330;28;20890;-55
2022/01/12 13:58:29;;;;;;;30.70;9.73;;;4.00;99.90;;;;;;5075934;28;20479;-53
2022/01/12 14:01:01;;;;;;;24.93;9.40;;;4.10;99.90;;;;;;5075490;28;20458;-49
2022/01/12 14:03:30;;;;;;;23.90;10.60;;;4.00;99.90;;;;;;5075579;28;20463;-56
2022/01/12 14:06:00;;;;;;;30.07;12.47;;;4.00;99.90;;;;;;5075393;28;20790;-60
2022/01/12 14:08:41;;;;;;;20.20;9.43;;;4.00;99.90;;;;;;5075550;28;20447;-51
2022/01/12 14:11:08;;;;;;;18.37;7.97;;;4.00;99.90;;;;;;5076250;28;20458;-50
2022/01/12 14:13:40;;;;;;;17.63;8.07;;;4.00;99.90;;;;;;5075577;28;20440;-52
2022/01/12 14:16:09;;;;;;;22.17;7.53;;;4.00;99.90;;;;;;5075379;28;20427;-51
2022/01/12 14:18:37;;;;;;;25.17;10.87;;;4.00;99.90;;;;;;5075082;28;20435;-51
2022/01/12 14:21:14;;;;;;;24.80;12.00;;;3.90;99.90;;;;;;5075650;28;20427;-55
2022/01/12 14:23:41;;;;;;;31.70;9.97;;;3.90;99.90;;;;;;5075576;28;20442;-50
2022/01/12 14:26:08;;;;;;;30.87;7.90;;;3.90;99.90;;;;;;5075209;28;20470;-52
2022/01/12 14:28:35;;;;;;;32.57;10.00;;;3.80;99.90;;;;;;5075903;28;20439;-52
2022/01/12 14:31:02;;;;;;;19.30;8.63;;;3.80;99.90;;;;;;5076046;28;20539;-52
2022/01/12 14:33:29;;;;;;;24.53;11.93;;;3.80;99.90;;;;;;5076695;28;20428;-48
2022/01/12 14:35:57;;;;;;;27.47;7.83;;;3.80;99.90;;;;;;5076482;28;20466;-51
2022/01/12 14:38:24;;;;;;;30.50;10.97;;;3.80;99.90;;;;;;5076156;28;20420;-53
2022/01/12 14:40:51;;;;;;;19.50;9.13;;;3.80;99.90;;;;;;5076546;28;20431;-46
2022/01/12 14:43:18;;;;;;;30.23;9.50;;;3.80;99.90;;;;;;5068201;28;20503;-47
2022/01/12 14:45:45;;;;;;;28.70;10.50;;;3.90;99.90;;;;;;5063142;28;20454;-49
2022/01/12 14:48:14;;;;;;;36.60;10.20;;;3.90;99.90;;;;;;5061717;28;20452;-50
2022/01/12 14:50:41;;;;;;;26.60;11.70;;;3.90;99.90;;;;;;5045175;28;20459;-52
2022/01/12 14:53:11;;;;;;;29.83;10.97;;;4.00;99.90;;;;;;5060487;28;20487;-52
2022/01/12 14:55:38;;;;;;;36.73;12.80;;;4.00;99.90;;;;;;5060256;28;20470;-53
2022/01/12 14:58:05;;;;;;;36.27;11.10;;;4.00;99.90;;;;;;5060075;28;20502;-51
2022/01/12 15:00:35;;;;;;;24.17;8.67;;;4.10;99.90;;;;;;5060693;28;20424;-49
2022/01/12 15:03:06;;;;;;;35.27;11.50;;;4.00;99.90;;;;;;5060660;28;20482;-49
2022/01/12 15:05:34;;;;;;;28.53;11.57;;;4.00;99.90;;;;;;5060833;28;20502;-54
2022/01/12 15:08:01;;;;;;;27.40;10.43;;;4.00;99.90;;;;;;5061123;28;20493;-49
2022/01/12 15:10:30;;;;;;;20.30;8.73;;;4.00;99.90;;;;;;5060771;28;20467;-54
2022/01/12 15:13:04;;;;;;;33.87;9.23;;;4.10;99.90;;;;;;5061148;28;20499;-51
2022/01/12 15:15:32;;;;;;;20.93;9.40;;;4.00;99.90;;;;;;5060611;28;20467;-55
2022/01/12 15:17:59;;;;;;;35.50;11.53;;;4.00;99.90;;;;;;5060100;28;20484;-54
2022/01/12 15:20:28;;;;;;;29.70;11.30;;;4.00;99.90;;;;;;5060593;28;20443;-52
2022/01/12 15:22:55;;;;;;;28.07;10.43;;;4.00;99.90;;;;;;5064153;28;20431;-54
2022/01/12 15:25:24;;;;;;;25.33;9.63;;;4.10;99.90;;;;;;5063790;28;20447;-50
2022/01/12 15:27:53;;;;;;;27.87;9.93;;;4.10;99.90;;;;;;5064153;28;20975;-49
2022/01/12 15:30:21;;;;;;;31.43;9.53;;;4.10;99.90;;;;;;5064702;28;20450;-47
2022/01/12 15:32:49;;;;;;;31.83;12.97;;;4.10;99.90;;;;;;5064275;28;20499;-54
2022/01/12 15:35:19;;;;;;;25.13;10.10;;;4.10;99.90;;;;;;5064937;28;20432;-53
2022/01/12 15:37:47;;;;;;;30.13;7.40;;;4.10;99.90;;;;;;5065579;28;20555;-55
2022/01/12 15:40:15;;;;;;;16.63;6.50;;;4.10;99.90;;;;;;5065894;28;20466;-57
2022/01/12 15:42:41;;;;;;;18.13;7.40;;;4.20;99.90;;;;;;5065438;28;20440;-52
2022/01/12 15:45:10;;;;;;;18.60;9.80;;;4.20;99.90;;;;;;5064868;28;20444;-51
2022/01/12 15:47:37;;;;;;;34.37;10.03;;;4.20;99.90;;;;;;5063833;28;20467;-52
2022/01/12 15:50:06;;;;;;;22.57;9.30;;;4.10;99.90;;;;;;5064383;28;20448;-50
2022/01/12 15:52:32;;;;;;;16.90;6.50;;;4.10;99.90;;;;;;5063187;28;20479;-52
2022/01/12 15:54:59;;;;;;;18.17;7.80;;;4.20;99.90;;;;;;5063812;28;20470;-51
2022/01/12 15:57:26;;;;;;;22.80;9.83;;;4.20;99.90;;;;;;5063378;28;20483;-50
2022/01/12 15:59:53;;;;;;;22.40;9.07;;;4.20;99.90;;;;;;5063336;28;20781;-52
2022/01/12 16:02:22;;;;;;;14.73;6.77;;;4.20;99.90;;;;;;5063600;28;20877;-53
2022/01/12 16:04:50;;;;;;;27.47;10.40;;;4.20;99.90;;;;;;5063072;28;20452;-55
2022/01/12 16:07:17;;;;;;;20.57;8.67;;;4.20;99.90;;;;;;5063278;28;20444;-55
2022/01/12 16:09:45;;;;;;;13.43;7.70;;;4.20;99.90;;;;;;5062207;28;20444;-55
2022/01/12 16:12:12;;;;;;;15.37;8.03;;;4.20;99.90;;;;;;5061919;28;20479;-51
2022/01/12 16:14:39;;;;;;;19.40;9.33;;;4.30;99.90;;;;;;5062680;28;20459;-52
2022/01/12 16:17:06;;;;;;;17.90;7.10;;;4.30;99.90;;;;;;5062397;28;20468;-50
2022/01/12 16:19:41;;;;;;;16.03;7.97;;;4.30;99.90;;;;;;5063960;28;20474;-50
2022/01/12 16:22:08;;;;;;;20.50;7.27;;;4.20;99.90;;;;;;5064046;28;20452;-53
2022/01/12 16:24:35;;;;;;;13.90;5.63;;;4.20;99.90;;;;;;5065560;28;20456;-52
2022/01/12 16:27:03;;;;;;;22.23;9.03;;;4.00;99.90;;;;;;5065230;28;20454;-49
2022/01/12 16:29:33;;;;;;;12.40;9.03;;;4.00;99.90;;;;;;5064707;28;20468;-54
2022/01/12 16:32:00;;;;;;;19.70;9.90;;;4.00;99.90;;;;;;5066884;28;20479;-56
2022/01/12 16:34:27;;;;;;;16.77;7.87;;;4.00;99.90;;;;;;5070079;28;20470;-55
2022/01/12 16:36:55;;;;;;;13.97;7.83;;;4.00;99.90;;;;;;5076643;28;20466;-54
2022/01/12 16:39:22;;;;;;;15.97;8.00;;;3.90;99.90;;;;;;5077138;28;20471;-55
2022/01/12 16:41:49;;;;;;;19.23;8.90;;;4.00;99.90;;;;;;5077053;28;20446;-54
2022/01/12 16:44:17;;;;;;;15.80;7.70;;;4.10;99.90;;;;;;5076827;28;20440;-54
2022/01/12 16:46:46;;;;;;;15.47;7.77;;;4.10;99.90;;;;;;5077346;28;20459;-57
2022/01/12 16:49:13;;;;;;;15.80;6.23;;;4.10;99.90;;;;;;5076814;28;20427;-53
2022/01/12 16:51:42;;;;;;;19.17;11.40;;;4.10;99.90;;;;;;5076937;28;20475;-55
2022/01/12 16:54:10;;;;;;;19.40;8.80;;;4.10;99.90;;;;;;5077001;28;20459;-54
2022/01/12 16:56:37;;;;;;;15.17;9.03;;;4.00;99.90;;;;;;5076490;28;20477;-49
2022/01/12 16:59:04;;;;;;;14.67;8.40;;;4.10;99.90;;;;;;5076823;28;20503;-55
2022/01/12 17:01:31;;;;;;;16.73;9.87;;;4.10;99.90;;;;;;5076900;28;20447;-53
2022/01/12 17:03:58;;;;;;;14.53;7.23;;;4.10;99.90;;;;;;5077054;28;20495;-56
2022/01/12 17:06:24;;;;;;;12.47;6.80;;;4.10;99.90;;;;;;5076652;28;20444;-51
2022/01/12 17:08:51;;;;;;;10.80;6.43;;;4.10;99.90;;;;;;5076713;28;20501;-56
2022/01/12 17:11:19;;;;;;;13.93;6.90;;;4.10;99.90;;;;;;5076717;28;20463;-49
2022/01/12 17:13:48;;;;;;;15.23;6.00;;;4.10;99.90;;;;;;5076623;28;20495;-53
2022/01/12 17:17:22;;;;;;;9.23;6.17;;;4.10;99.90;;;;;;5076309;28;20444;-56
2022/01/12 17:19:51;;;;;;;7.57;4.87;;;4.20;99.90;;;;;;5076355;28;20467;-52
2022/01/12 17:22:19;;;;;;;13.10;5.93;;;4.30;99.90;;;;;;5076292;28;20432;-57
2022/01/12 17:25:16;;;;;;;15.60;7.00;;;4.30;99.90;;;;;;5076870;28;20494;-53
2022/01/12 17:28:11;;;;;;;19.50;7.30;;;4.30;99.90;;;;;;5070677;28;20448;-49
2022/01/12 17:30:38;;;;;;;10.97;6.57;;;4.20;99.90;;;;;;5075591;28;20457;-55
2022/01/12 17:33:04;;;;;;;16.07;8.47;;;4.20;99.90;;;;;;5075716;28;20483;-51
2022/01/12 17:35:31;;;;;;;8.87;5.03;;;4.30;99.90;;;;;;5076021;28;20455;-54
2022/01/12 17:37:58;;;;;;;25.87;8.50;;;4.40;99.90;;;;;;5076549;28;20438;-51
2022/01/12 17:40:26;;;;;;;9.40;6.10;;;4.30;99.90;;;;;;5076118;28;20467;-50
2022/01/12 17:42:54;;;;;;;10.90;5.90;;;4.30;99.90;;;;;;5075813;28;20474;-54
2022/01/12 17:45:21;;;;;;;16.07;6.27;;;4.30;99.90;;;;;;5075851;28;20471;-54
2022/01/12 17:47:48;;;;;;;27.13;8.00;;;4.40;99.90;;;;;;5076060;28;20468;-53
2022/01/12 17:50:18;;;;;;;9.70;5.33;;;4.40;99.90;;;;;;5076155;28;20447;-55
2022/01/12 17:52:47;;;;;;;11.70;5.70;;;4.40;99.90;;;;;;5075792;28;20488;-52
2022/01/12 17:55:16;;;;;;;8.30;5.27;;;4.40;99.90;;;;;;5076113;28;20447;-55
2022/01/12 17:57:45;;;;;;;18.30;7.20;;;4.50;99.90;;;;;;5076335;28;20435;-56
2022/01/12 18:00:15;;;;;;;12.10;6.90;;;4.40;99.90;;;;;;5076361;28;20452;-54
2022/01/12 18:02:42;;;;;;;15.33;7.70;;;4.40;99.90;;;;;;5076087;28;20491;-53